Time;durP1;ratioP1;P1;durP2;ratioP2;P2;SDS_P1;SDS_P2;PMS_P1;PMS_P2;Temp;Humidity;BMP_temperature;BMP_pressure;BME280_temperature;BME280_humidity;BME280_pressure;Samples;Min_cycle;Max_cycle;Signal;HPM_P1;HPM_P2
2022/09/04 00:02:23;;;;;;;10.07;4.28;;;;;;;12.96;81.96;98608.44;4237560;27;20107;-71
2022/09/04 00:04:27;;;;;;;7.00;4.10;;;;;;;12.83;83.03;98608.78;4236980;27;20055;-71
2022/09/04 00:06:37;;;;;;;5.57;4.32;;;;;;;12.76;83.13;98608.75;4237265;27;20047;-71
2022/09/04 00:08:47;;;;;;;4.72;4.20;;;;;;;12.65;83.46;98616.22;4236862;27;20463;-71
2022/09/04 00:11:03;;;;;;;4.70;4.30;;;;;;;12.60;83.31;98609.06;4236809;27;20054;-71
2022/09/04 00:13:07;;;;;;;5.22;3.95;;;;;;;12.54;84.41;98610.59;4237247;27;20051;-71
2022/09/04 00:15:20;;;;;;;4.47;4.05;;;;;;;12.44;84.63;98618.88;4236877;27;20039;-71
2022/09/04 00:17:37;;;;;;;5.18;4.65;;;;;;;12.30;86.81;98625.91;4237681;27;20088;-71
2022/09/04 00:20:00;;;;;;;4.70;4.30;;;;;;;12.20;87.30;98621.09;4236581;27;20051;-71
2022/09/04 00:22:09;;;;;;;5.30;4.47;;;;;;;12.19;87.40;98622.28;4237322;27;20043;-71
2022/09/04 00:24:16;;;;;;;8.02;4.88;;;;;;;12.18;87.99;98631.78;4236740;27;20062;-71
2022/09/04 00:26:38;;;;;;;6.22;4.63;;;;;;;12.20;88.71;98626.63;4236259;27;20041;-71
2022/09/04 00:28:53;;;;;;;7.60;4.85;;;;;;;12.20;89.37;98628.63;4236369;27;20073;-71
2022/09/04 00:31:03;;;;;;;5.10;4.60;;;;;;;12.15;89.07;98624.22;4236285;27;20050;-71
2022/09/04 00:33:20;;;;;;;10.60;5.18;;;;;;;12.10;89.20;98632.91;4236745;27;20416;-71
2022/09/04 00:35:23;;;;;;;5.13;4.25;;;;;;;12.08;89.39;98635.25;4237070;27;20424;-71
2022/09/04 00:37:30;;;;;;;5.88;4.68;;;;;;;12.05;89.29;98638.78;4237563;27;20118;-71
2022/09/04 00:39:39;;;;;;;5.93;4.65;;;;;;;11.99;89.43;98638.34;4236486;27;20387;-70
2022/09/04 00:41:58;;;;;;;7.80;4.47;;;;;;;12.01;88.35;98638.78;4237220;27;20506;-71
2022/09/04 00:44:12;;;;;;;9.57;4.63;;;;;;;12.03;86.67;98647.50;4236934;27;20558;-70
2022/09/04 00:46:43;;;;;;;7.50;4.68;;;;;;;12.01;87.53;98643.53;4218256;28;20127;-70
2022/09/04 00:49:02;;;;;;;8.82;5.03;;;;;;;11.90;88.55;98635.09;4236536;27;20483;-71
2022/09/04 00:51:42;;;;;;;5.38;4.85;;;;;;;11.86;89.30;98636.28;4235747;27;20032;-70
2022/09/04 00:54:00;;;;;;;6.70;5.60;;;;;;;11.77;90.45;98640.13;4204339;27;20044;-70
2022/09/04 00:56:14;;;;;;;6.07;5.45;;;;;;;11.69;91.13;98643.22;4236071;27;20066;-70
2022/09/04 00:58:31;;;;;;;6.97;4.65;;;;;;;11.65;90.95;98651.47;4236504;27;20345;-71
2022/09/04 01:00:31;;;;;;;6.30;5.40;;;;;;;11.63;90.29;98639.97;4236447;27;20355;-70
2022/09/04 01:03:06;;;;;;;5.65;5.07;;;;;;;11.62;89.39;98651.44;4236517;27;20054;-71
2022/09/04 01:05:25;;;;;;;5.20;4.50;;;;;;;11.67;87.01;98656.66;4235900;27;20055;-70
2022/09/04 01:07:48;;;;;;;7.25;4.65;;;;;;;11.71;85.72;98654.72;4236759;27;20046;-70
2022/09/04 01:10:11;;;;;;;8.10;5.10;;;;;;;11.66;87.77;98663.34;4234996;27;20039;-70
2022/09/04 01:12:20;;;;;;;6.85;5.38;;;;;;;11.53;89.59;98662.84;4236166;27;20126;-71
2022/09/04 01:14:26;;;;;;;5.90;5.15;;;;;;;11.44;89.53;98659.59;4236903;27;20120;-71
2022/09/04 01:16:40;;;;;;;5.25;4.28;;;;;;;11.42;89.03;98661.91;4236649;27;20050;-71
2022/09/04 01:19:14;;;;;;;5.68;4.75;;;;;;;11.40;88.33;98662.31;4235835;27;20053;-70
2022/09/04 01:21:29;;;;;;;5.43;4.90;;;;;;;11.35;89.38;98670.97;4235055;27;20047;-71
2022/09/04 01:23:55;;;;;;;7.43;5.60;;;;;;;11.29;89.47;98666.94;4236191;27;20114;-71
2022/09/04 01:26:08;;;;;;;8.65;5.20;;;;;;;11.19;89.89;98668.41;4236037;27;20043;-70
2022/09/04 01:28:24;;;;;;;5.93;4.95;;;;;;;11.13;90.31;98669.91;4235979;27;20066;-70
2022/09/04 01:30:25;;;;;;;5.97;4.53;;;;;;;11.06;90.47;98674.56;4235188;27;20046;-70
2022/09/04 01:32:39;;;;;;;6.05;4.82;;;;;;;11.04;89.52;98665.84;4236222;27;20027;-71
2022/09/04 01:34:48;;;;;;;4.80;4.32;;;;;;;11.01;90.55;98675.69;4217558;28;20163;-71
2022/09/04 01:36:54;;;;;;;5.53;4.13;;;;;;;10.97;90.43;98675.63;4235597;27;20099;-71
2022/09/04 01:39:00;;;;;;;6.68;5.05;;;;;;;10.98;90.29;98677.22;4235520;27;20049;-70
2022/09/04 01:41:14;;;;;;;5.00;4.50;;;;;;;10.93;90.31;98669.28;4236275;27;20045;-70
2022/09/04 01:43:23;;;;;;;7.88;4.75;;;;;;;10.93;90.40;98679.56;4235765;27;20042;-70
2022/09/04 01:46:03;;;;;;;6.93;5.03;;;;;;;10.94;89.84;98681.13;4235091;27;20047;-71
2022/09/04 01:48:06;;;;;;;9.70;6.53;;;;;;;10.90;90.88;98680.28;4211108;27;20046;-70
2022/09/04 01:50:15;;;;;;;8.20;6.15;;;;;;;10.84;90.77;98677.06;4235008;27;20031;-71
2022/09/04 01:52:21;;;;;;;9.35;6.95;;;;;;;10.80;91.50;98670.66;4235669;27;20058;-71
2022/09/04 01:54:27;;;;;;;8.93;6.40;;;;;;;10.78;91.86;98670.25;4234506;27;20464;-70
2022/09/04 01:56:39;;;;;;;8.75;6.22;;;;;;;10.77;92.26;98676.16;4235059;28;20039;-70
2022/09/04 01:58:55;;;;;;;8.48;5.88;;;;;;;10.78;89.78;98670.25;4235061;28;20043;-70
2022/09/04 02:01:49;;;;;;;7.57;5.68;;;;;;;10.78;89.88;98681.31;4235861;28;20047;-70
2022/09/04 02:04:10;;;;;;;6.10;5.13;;;;;;;10.73;90.59;98684.41;4166319;28;20076;-70
2022/09/04 02:06:26;;;;;;;7.72;5.55;;;;;;;10.67;90.45;98680.34;4214386;28;20543;-70
2022/09/04 02:09:09;;;;;;;6.18;5.30;;;;;;;10.63;90.17;98677.53;4234538;28;20085;-70
2022/09/04 02:11:15;;;;;;;7.10;5.25;;;;;;;10.63;90.09;98685.84;4235379;28;20498;-70
2022/09/04 02:13:28;;;;;;;5.78;5.18;;;;;;;10.59;89.37;98673.94;4236166;28;20058;-70
2022/09/04 02:15:42;;;;;;;7.28;5.15;;;;;;;10.59;88.72;98679.47;4235944;28;20054;-70
2022/09/04 02:17:58;;;;;;;6.43;4.95;;;;;;;10.56;88.88;98693.25;4235652;28;20073;-70
2022/09/04 02:20:15;;;;;;;7.18;4.65;;;;;;;10.53;89.17;98683.72;4235707;28;20078;-70
2022/09/04 02:22:41;;;;;;;6.07;5.47;;;;;;;10.50;88.89;98678.94;4235489;28;20558;-70
2022/09/04 02:25:09;;;;;;;7.38;4.97;;;;;;;10.46;89.36;98686.38;4236057;28;20038;-70
2022/09/04 02:27:15;;;;;;;5.25;4.60;;;;;;;10.40;89.42;98682.34;4235341;28;20059;-70
2022/09/04 02:29:31;;;;;;;5.63;5.03;;;;;;;10.38;87.99;98691.00;4234488;28;20382;-70
2022/09/04 02:31:53;;;;;;;5.18;4.68;;;;;;;10.31;89.43;98690.09;4235856;28;20051;-70
2022/09/04 02:34:25;;;;;;;5.55;4.93;;;;;;;10.25;91.02;98695.13;4234131;28;20089;-70
2022/09/04 02:36:36;;;;;;;9.47;5.97;;;;;;;10.14;92.77;98686.63;4235307;27;20359;-70
2022/09/04 02:38:57;;;;;;;6.22;5.22;;;;;;;10.13;93.17;98690.59;4235012;28;20043;-70
2022/09/04 02:41:10;;;;;;;5.80;5.30;;;;;;;10.10;93.89;98683.03;4236089;28;20626;-70
2022/09/04 02:44:01;;;;;;;6.90;5.80;;;;;;;10.11;94.39;98692.13;4235059;28;20363;-70
2022/09/04 02:46:38;;;;;;;6.70;6.03;;;;;;;10.10;94.32;98687.78;4166224;28;20056;-70
2022/09/04 02:49:02;;;;;;;9.63;5.60;;;;;;;10.12;92.97;98691.75;4165543;28;20603;-70
2022/09/04 02:51:37;;;;;;;5.90;5.30;;;;;;;10.16;92.28;98689.03;4202338;28;20479;-70
2022/09/04 02:53:51;;;;;;;6.13;5.22;;;;;;;10.19;92.26;98682.78;4237269;27;20048;-70
2022/09/04 02:56:08;;;;;;;8.55;5.28;;;;;;;10.25;92.74;98689.59;4238840;27;20050;-70
2022/09/04 02:58:46;;;;;;;6.18;4.75;;;;;;;10.33;91.14;98688.53;4237995;27;20460;-70
2022/09/04 03:01:02;;;;;;;7.43;5.30;;;;;;;10.40;90.63;98683.13;4238884;27;20051;-70
2022/09/04 03:03:20;;;;;;;7.38;5.30;;;;;;;10.44;93.12;98693.47;4238928;27;20532;-70
2022/09/04 03:05:25;;;;;;;5.43;4.90;;;;;;;10.41;92.13;98693.03;4239367;27;20053;-70
2022/09/04 03:07:48;;;;;;;5.47;4.97;;;;;;;10.33;92.24;98698.81;4238852;27;20071;-70
2022/09/04 03:10:15;;;;;;;5.40;4.90;;;;;;;10.26;92.94;98701.47;4238598;27;20707;-70
2022/09/04 03:12:25;;;;;;;6.32;5.32;;;;;;;10.20;93.16;98702.94;4238200;27;20135;-70
2022/09/04 03:14:47;;;;;;;7.90;5.00;;;;;;;10.24;90.52;98706.56;4238799;27;20043;-70
2022/09/04 03:17:00;;;;;;;6.60;5.18;;;;;;;10.32;89.69;98708.28;4237962;27;20077;-71
2022/09/04 03:19:23;;;;;;;5.78;5.18;;;;;;;10.42;88.44;98715.94;4238082;27;20047;-70
2022/09/04 03:21:38;;;;;;;5.30;4.80;;;;;;;10.48;87.89;98705.38;4238653;27;20079;-70
2022/09/04 03:23:45;;;;;;;5.50;4.93;;;;;;;10.49;87.23;98709.72;4238577;27;20035;-70
2022/09/04 03:25:55;;;;;;;6.50;5.55;;;;;;;10.49;87.89;98709.72;4237692;27;20043;-70
2022/09/04 03:27:56;;;;;;;7.68;6.28;;;;;;;10.40;88.42;98704.47;4238962;27;20062;-70
2022/09/04 03:30:05;;;;;;;8.30;6.30;;;;;;;10.29;88.82;98707.06;4219554;28;20035;-70
2022/09/04 03:32:31;;;;;;;6.30;5.65;;;;;;;10.19;90.10;98706.88;4238503;27;20039;-71
2022/09/04 03:34:31;;;;;;;6.78;5.68;;;;;;;10.14;89.50;98703.22;4238511;27;20035;-70
2022/09/04 03:36:47;;;;;;;5.80;5.30;;;;;;;10.17;88.64;98696.16;4238418;27;20074;-70
2022/09/04 03:39:04;;;;;;;5.28;4.78;;;;;;;10.17;87.85;98709.97;4238270;27;20094;-70
2022/09/04 03:41:13;;;;;;;6.72;5.43;;;;;;;10.20;88.57;98700.97;4238264;27;20058;-70
2022/09/04 03:43:41;;;;;;;15.48;6.18;;;;;;;10.13;88.09;98704.41;4238024;27;20046;-70
2022/09/04 03:45:56;;;;;;;6.18;5.20;;;;;;;10.09;87.86;98709.09;4236774;27;20039;-70
2022/09/04 03:48:13;;;;;;;7.68;5.10;;;;;;;10.00;89.78;98710.47;4238292;27;20375;-70
2022/09/04 03:50:22;;;;;;;6.80;6.10;;;;;;;9.90;91.35;98725.72;4237121;27;20023;-70
2022/09/04 03:52:35;;;;;;;7.55;4.78;;;;;;;9.80;92.67;98718.81;4237066;27;20054;-70
2022/09/04 03:55:00;;;;;;;6.38;5.78;;;;;;;9.80;91.68;98721.59;4238096;27;20043;-70
2022/09/04 03:57:10;;;;;;;6.60;5.05;;;;;;;9.84;89.38;98710.59;4238195;27;20050;-70
2022/09/04 03:59:43;;;;;;;6.22;5.15;;;;;;;9.93;90.00;98713.94;4237658;27;20040;-70
2022/09/04 04:02:13;;;;;;;6.18;5.43;;;;;;;9.89;91.07;98715.81;4237571;27;20047;-70
2022/09/04 04:04:58;;;;;;;7.82;5.57;;;;;;;9.84;90.70;98725.19;4236627;27;20039;-70
2022/09/04 04:07:08;;;;;;;6.18;5.05;;;;;;;9.85;89.29;98718.53;4237030;27;20051;-70
2022/09/04 04:09:23;;;;;;;6.35;5.30;;;;;;;9.90;89.07;98724.91;4238055;27;20058;-70
2022/09/04 04:12:00;;;;;;;7.95;5.30;;;;;;;9.93;88.51;98719.47;4237320;27;20039;-70
2022/09/04 04:14:25;;;;;;;8.85;5.57;;;;;;;9.84;90.42;98725.19;4236674;27;20035;-70
2022/09/04 04:16:58;;;;;;;7.30;5.50;;;;;;;9.72;91.12;98728.16;4237771;27;20051;-70
2022/09/04 04:19:17;;;;;;;;;;;;;;;9.63;91.82;98733.13;4236982;27;20043;-70
2022/09/04 04:21:37;;;;;;;7.82;4.82;;;;;;;9.59;91.63;98746.03;4237477;27;20435;-70
2022/09/04 04:23:47;;;;;;;5.70;4.93;;;;;;;9.60;90.90;98741.31;4237619;27;20210;-70
2022/09/04 04:26:06;;;;;;;6.15;4.88;;;;;;;9.63;89.92;98741.41;4237719;27;20050;-70
2022/09/04 04:28:58;;;;;;;5.95;4.88;;;;;;;9.67;90.33;98736.72;4217879;28;20131;-70
2022/09/04 04:31:13;;;;;;;38.13;6.95;;;;;;;9.71;91.50;98740.38;4237121;27;20387;-70
2022/09/04 04:33:27;;;;;;;6.18;5.20;;;;;;;9.74;92.73;98747.91;4236434;27;20043;-70
2022/09/04 04:35:43;;;;;;;7.45;4.82;;;;;;;9.80;91.56;98746.47;4237420;27;20051;-70
2022/09/04 04:38:11;;;;;;;7.30;4.78;;;;;;;9.82;91.47;98754.38;4238557;27;20074;-70
2022/09/04 04:40:39;;;;;;;6.85;5.10;;;;;;;9.81;91.12;98758.31;4236936;27;20376;-70
2022/09/04 04:42:47;;;;;;;6.45;5.07;;;;;;;9.80;91.37;98753.94;4237563;27;20345;-70
2022/09/04 04:48:09;;;;;;;7.97;4.95;;;;;;;9.74;91.10;98760.94;4236422;27;20054;-70
2022/09/04 04:50:39;;;;;;;5.43;4.93;;;;;;;9.72;93.53;98769.59;4230951;27;20312;-70
2022/09/04 04:53:01;;;;;;;9.02;4.88;;;;;;;9.71;93.66;98776.28;4236774;27;20039;-70
2022/09/04 04:55:31;;;;;;;6.03;5.00;;;;;;;9.77;91.84;98761.03;4237034;27;20387;-70
2022/09/04 04:57:53;;;;;;;6.20;5.22;;;;;;;9.84;92.35;98772.19;4237139;27;20043;-70
2022/09/04 05:00:18;;;;;;;12.68;6.47;;;;;;;9.83;92.37;98778.09;4235807;27;20318;-70
2022/09/04 05:02:29;;;;;;;7.57;5.30;;;;;;;9.76;93.52;98773.25;4235930;27;20517;-70
2022/09/04 05:05:01;;;;;;;7.15;5.10;;;;;;;9.69;93.42;98781.38;4237041;27;20043;-70
2022/09/04 05:07:20;;;;;;;8.70;4.75;;;;;;;9.65;94.01;98791.56;4216185;27;20534;-70
2022/09/04 05:09:35;;;;;;;5.22;4.72;;;;;;;9.68;92.15;98784.50;4236363;27;20043;-70
2022/09/04 05:11:38;;;;;;;6.18;5.45;;;;;;;9.72;91.44;98791.69;4236563;27;20054;-70
2022/09/04 05:13:58;;;;;;;9.55;5.25;;;;;;;9.73;91.51;98793.28;4237010;27;20234;-70
2022/09/04 05:16:22;;;;;;;6.72;5.05;;;;;;;9.76;89.87;98800.88;4236576;27;20412;-70
2022/09/04 05:18:48;;;;;;;6.30;5.70;;;;;;;9.75;91.15;98804.78;4236059;27;20062;-70
2022/09/04 05:21:18;;;;;;;10.00;6.13;;;;;;;9.75;90.92;98801.22;4236851;27;20071;-70
2022/09/04 05:23:35;;;;;;;8.98;5.53;;;;;;;9.71;91.58;98809.44;4236583;27;20124;-70
2022/09/04 05:25:59;;;;;;;8.05;5.75;;;;;;;9.66;92.09;98814.47;4237030;27;20099;-70
2022/09/04 05:28:25;;;;;;;8.00;6.32;;;;;;;9.63;93.45;98806.91;4236742;27;20047;-70
2022/09/04 05:30:26;;;;;;;7.10;6.15;;;;;;;9.60;93.34;98810.38;4235719;27;20092;-70
2022/09/04 05:32:39;;;;;;;7.75;6.53;;;;;;;9.62;92.41;98817.16;4235932;27;20347;-70
2022/09/04 05:34:50;;;;;;;8.52;5.97;;;;;;;9.63;92.52;98821.50;4236262;27;20039;-70
2022/09/04 05:37:16;;;;;;;8.93;6.30;;;;;;;9.70;93.22;98823.63;4236377;27;20095;-70
2022/09/04 05:39:44;;;;;;;7.05;6.07;;;;;;;9.76;92.35;98822.97;4224963;27;20035;-70
2022/09/04 05:42:03;;;;;;;7.40;5.97;;;;;;;9.81;93.16;98825.44;4236643;27;20379;-70
2022/09/04 05:44:19;;;;;;;8.25;6.10;;;;;;;9.88;93.22;98835.84;4236335;27;20442;-70
2022/09/04 05:46:50;;;;;;;9.65;6.05;;;;;;;9.98;92.26;98831.69;4236547;27;20031;-70
2022/09/04 05:48:59;;;;;;;6.03;5.40;;;;;;;10.07;92.09;98840.53;4216603;28;20135;-70
2022/09/04 05:51:33;;;;;;;11.48;6.20;;;;;;;10.14;91.31;98832.38;4235662;27;20054;-70
2022/09/04 05:53:49;;;;;;;6.78;5.90;;;;;;;10.24;90.64;98831.81;4235171;27;20552;-70
2022/09/04 05:56:04;;;;;;;8.95;6.35;;;;;;;10.34;91.12;98838.69;4236508;27;20134;-70
2022/09/04 05:58:52;;;;;;;7.80;5.10;;;;;;;10.43;91.02;98842.03;4235859;28;20044;-70
2022/09/04 06:01:12;;;;;;;6.80;5.43;;;;;;;10.53;90.52;98844.19;4235836;28;20206;-70
2022/09/04 06:03:21;;;;;;;6.50;5.25;;;;;;;10.60;90.90;98849.06;4236213;28;20071;-70
2022/09/04 06:05:39;;;;;;;8.15;6.72;;;;;;;10.68;91.79;98848.81;4235997;28;20051;-70
2022/09/04 06:08:11;;;;;;;7.78;6.15;;;;;;;10.76;92.33;98848.91;4235420;27;20039;-70
2022/09/04 06:10:27;;;;;;;7.90;6.90;;;;;;;10.85;92.35;98861.34;4235050;28;20048;-70
2022/09/04 06:13:18;;;;;;;7.35;6.57;;;;;;;10.96;93.00;98847.66;4236728;28;20124;-70
2022/09/04 06:15:36;;;;;;;9.43;6.45;;;;;;;11.05;92.17;98852.94;4235431;28;20524;-70
2022/09/04 06:18:00;;;;;;;7.90;5.78;;;;;;;11.11;92.32;98857.00;4236348;28;20075;-70
2022/09/04 06:20:27;;;;;;;9.30;6.05;;;;;;;11.21;90.76;98856.34;4234701;28;20035;-70
2022/09/04 06:22:53;;;;;;;10.07;6.03;;;;;;;11.30;90.11;98861.63;4236745;28;20122;-70
2022/09/04 06:24:56;;;;;;;6.43;5.80;;;;;;;11.38;87.93;98864.13;4224932;28;20031;-70
2022/09/04 06:27:22;;;;;;;7.47;5.68;;;;;;;11.48;87.79;98871.78;4236236;28;20300;-70
2022/09/04 06:29:40;;;;;;;7.70;5.38;;;;;;;11.59;86.13;98860.06;4236976;27;20441;-70
2022/09/04 06:32:16;;;;;;;9.65;5.65;;;;;;;11.69;87.17;98867.72;4238641;27;20055;-70
2022/09/04 06:34:55;;;;;;;9.88;6.70;;;;;;;11.78;89.80;98877.34;4148577;28;20560;-70
2022/09/04 06:37:18;;;;;;;6.10;5.40;;;;;;;11.88;87.68;98862.03;4223677;27;20205;-70
2022/09/04 06:39:37;;;;;;;;;;;;;;;11.97;87.88;98873.63;4239087;27;20047;-70
2022/09/04 06:41:56;;;;;;;10.85;6.55;;;;;;;12.08;87.64;98871.81;4239579;27;20422;-70
2022/09/04 06:43:56;;;;;;;8.25;6.85;;;;;;;12.20;89.76;98878.25;4239030;27;20242;-70
2022/09/04 06:46:13;;;;;;;8.00;6.78;;;;;;;12.29;89.96;98876.78;4239692;27;20043;-70
2022/09/04 06:48:42;;;;;;;7.75;6.70;;;;;;;12.38;90.39;98868.94;4238985;27;20057;-70
2022/09/04 06:51:00;;;;;;;10.02;6.88;;;;;;;12.49;90.43;98882.13;4239167;27;20432;-70
2022/09/04 06:53:33;;;;;;;8.65;6.57;;;;;;;12.58;90.69;98880.66;4239131;27;20456;-70
2022/09/04 06:56:00;;;;;;;9.68;6.40;;;;;;;12.68;89.01;98881.94;4239377;27;20043;-70
2022/09/04 06:58:23;;;;;;;8.43;6.97;;;;;;;12.77;89.15;98879.66;4239349;27;20094;-70
2022/09/04 07:00:29;;;;;;;8.95;7.60;;;;;;;12.92;89.31;98889.69;4176878;27;20803;-70
2022/09/04 07:02:54;;;;;;;8.25;7.25;;;;;;;13.00;88.27;98885.00;4238957;27;20343;-70
2022/09/04 07:05:09;;;;;;;8.70;6.63;;;;;;;13.09;88.46;98881.91;4234629;27;20039;-71
2022/09/04 07:07:18;;;;;;;8.75;6.07;;;;;;;13.16;87.89;98887.53;4238404;27;20035;-70
2022/09/04 07:09:26;;;;;;;7.50;6.18;;;;;;;13.25;85.92;98892.78;4238584;27;20047;-71
2022/09/04 07:11:46;;;;;;;8.07;6.10;;;;;;;13.31;84.96;98892.00;4238527;27;20420;-70
2022/09/04 07:14:23;;;;;;;9.32;5.90;;;;;;;13.38;85.06;98897.63;4237540;27;20051;-70
2022/09/04 07:16:43;;;;;;;6.97;5.93;;;;;;;13.48;84.94;98898.88;4237839;27;20536;-71
2022/09/04 07:19:02;;;;;;;9.13;6.65;;;;;;;13.57;85.08;98891.00;4238509;27;20138;-70
2022/09/04 07:21:17;;;;;;;7.38;6.15;;;;;;;13.65;84.32;98902.94;4237956;27;20035;-71
2022/09/04 07:23:23;;;;;;;7.68;6.95;;;;;;;13.74;85.02;98903.41;4238839;27;20552;-71
2022/09/04 07:25:43;;;;;;;11.32;6.47;;;;;;;13.89;85.92;98895.94;4238516;27;20061;-70
2022/09/04 07:27:49;;;;;;;11.50;7.50;;;;;;;14.00;85.71;98894.81;4238252;27;20439;-71
2022/09/04 07:30:04;;;;;;;7.45;6.85;;;;;;;14.10;84.54;98900.81;4237627;27;20133;-71
2022/09/04 07:32:10;;;;;;;7.65;6.95;;;;;;;14.17;83.82;98904.41;4238817;27;20085;-71
2022/09/04 07:34:36;;;;;;;9.48;5.43;;;;;;;14.25;80.36;98905.25;4238813;27;20451;-71
2022/09/04 07:37:03;;;;;;;9.40;6.55;;;;;;;14.37;81.27;98904.88;4238134;27;20501;-70
2022/09/04 07:39:27;;;;;;;6.75;5.60;;;;;;;14.42;81.49;98901.72;4236883;27;20062;-71
2022/09/04 07:41:55;;;;;;;7.43;6.20;;;;;;;14.51;81.15;98896.59;4236578;27;20096;-71
2022/09/04 07:44:22;;;;;;;6.60;5.97;;;;;;;14.60;81.34;98901.78;4237946;27;20043;-70
2022/09/04 07:46:34;;;;;;;5.93;5.43;;;;;;;14.69;80.53;98904.97;4237573;27;20043;-70
2022/09/04 07:48:45;;;;;;;7.85;5.25;;;;;;;14.76;76.09;98913.34;4237702;27;20043;-68
2022/09/04 07:51:03;;;;;;;9.48;5.60;;;;;;;14.87;78.89;98911.38;4238281;27;20386;-70
2022/09/04 07:53:20;;;;;;;5.50;4.97;;;;;;;14.97;77.17;98904.19;4237866;27;20053;-70
2022/09/04 07:55:39;;;;;;;5.63;5.10;;;;;;;15.07;76.87;98897.88;4219869;28;20489;-70
2022/09/04 07:58:03;;;;;;;6.60;5.28;;;;;;;15.20;77.59;98912.19;4236701;27;21521;-70
2022/09/04 08:00:12;;;;;;;5.50;5.00;;;;;;;15.30;78.34;98905.78;4236456;27;20479;-70
2022/09/04 08:02:26;;;;;;;8.07;6.30;;;;;;;15.46;78.04;98917.34;4237591;27;20088;-71
2022/09/04 08:04:58;;;;;;;6.28;5.63;;;;;;;15.54;78.06;98925.69;4237222;27;20028;-70
2022/09/04 08:07:04;;;;;;;7.65;6.63;;;;;;;15.66;77.87;98914.97;4237592;27;20047;-70
2022/09/04 08:09:20;;;;;;;6.05;5.45;;;;;;;15.78;77.79;98907.34;4236739;27;20063;-70
2022/09/04 08:11:32;;;;;;;7.07;5.50;;;;;;;15.86;77.39;98912.50;4234322;27;20051;-70
2022/09/04 08:13:59;;;;;;;10.52;6.32;;;;;;;15.94;76.84;98922.44;4237551;27;20071;-70
2022/09/04 08:16:07;;;;;;;5.43;4.88;;;;;;;16.01;76.24;98925.22;4237383;27;20035;-70
2022/09/04 08:18:20;;;;;;;9.55;6.05;;;;;;;16.12;76.32;98921.59;4237116;27;20495;-70
2022/09/04 08:20:36;;;;;;;6.82;5.18;;;;;;;16.24;76.31;98933.13;4235218;27;20358;-70
2022/09/04 08:22:45;;;;;;;9.90;6.40;;;;;;;16.42;75.44;98924.66;4236610;27;20491;-71
2022/09/04 08:25:15;;;;;;;10.68;5.50;;;;;;;16.55;75.79;98930.59;4236574;27;20095;-70
2022/09/04 08:27:35;;;;;;;7.28;5.70;;;;;;;16.64;74.39;98924.56;4237327;27;20176;-70
2022/09/04 08:30:04;;;;;;;5.43;4.88;;;;;;;16.69;73.92;98926.94;4236763;27;20154;-70
2022/09/04 08:32:20;;;;;;;8.02;5.25;;;;;;;16.84;74.00;98928.44;4237182;27;20043;-71
2022/09/04 08:34:51;;;;;;;10.10;6.00;;;;;;;16.99;73.76;98924.34;4236601;27;20039;-70
2022/09/04 08:37:01;;;;;;;6.88;4.68;;;;;;;17.05;73.54;98931.09;4236164;27;20729;-70
2022/09/04 08:39:12;;;;;;;5.72;5.18;;;;;;;17.10;73.04;98924.28;4236209;27;20051;-70
2022/09/04 08:41:12;;;;;;;6.85;5.68;;;;;;;17.20;72.67;98928.97;4235716;27;20325;-70
2022/09/04 08:43:34;;;;;;;5.60;4.97;;;;;;;17.33;71.98;98941.25;4236059;27;20401;-70
2022/09/04 08:46:12;;;;;;;7.45;6.32;;;;;;;17.50;70.70;98935.94;4235716;27;20377;-70
2022/09/04 08:48:49;;;;;;;14.50;6.43;;;;;;;17.68;70.45;98944.94;4235342;27;20295;-70
2022/09/04 08:51:15;;;;;;;8.07;6.22;;;;;;;17.76;70.02;98948.50;4236680;27;20085;-70
2022/09/04 08:53:21;;;;;;;8.00;5.72;;;;;;;17.85;69.11;98943.22;4237096;27;20083;-70
2022/09/04 08:55:24;;;;;;;7.30;5.18;;;;;;;17.91;68.92;98945.16;4236767;27;20133;-70
2022/09/04 08:57:37;;;;;;;9.82;6.05;;;;;;;18.01;68.83;98943.44;4237242;27;20340;-70
2022/09/04 08:59:47;;;;;;;;;;;;;;;18.14;67.86;98938.91;4237449;27;20047;-70
2022/09/04 09:02:06;;;;;;;11.55;5.68;;;;;;;18.21;67.25;98944.41;4236815;27;20417;-70
2022/09/04 09:04:12;;;;;;;12.00;6.20;;;;;;;18.30;66.69;98943.13;4236276;27;20538;-71
2022/09/04 09:06:39;;;;;;;9.57;5.88;;;;;;;18.33;66.79;98945.88;4237330;27;20199;-71
2022/09/04 09:08:45;;;;;;;10.98;6.20;;;;;;;18.42;66.99;98939.75;4232109;27;20061;-71
2022/09/04 09:11:07;;;;;;;9.18;5.60;;;;;;;18.53;66.51;98941.22;4236688;27;20260;-71
2022/09/04 09:13:22;;;;;;;6.72;5.43;;;;;;;18.62;65.47;98943.50;4235694;27;20033;-71
2022/09/04 09:16:01;;;;;;;6.75;5.75;;;;;;;18.69;65.50;98935.00;4235502;27;20055;-71
2022/09/04 09:18:10;;;;;;;9.90;4.97;;;;;;;18.82;65.83;98954.06;4236272;27;20039;-72
2022/09/04 09:20:36;;;;;;;9.55;4.60;;;;;;;18.92;65.81;98941.91;4235171;27;20079;-71
2022/09/04 09:22:48;;;;;;;15.70;5.53;;;;;;;19.13;64.58;98944.41;4236865;27;20498;-71
2022/09/04 09:24:52;;;;;;;8.30;4.97;;;;;;;19.31;63.85;98939.28;4236881;27;20074;-71
2022/09/04 09:27:22;;;;;;;6.65;4.38;;;;;;;19.48;62.99;98947.84;4235734;27;20047;-71
2022/09/04 09:29:43;;;;;;;10.27;5.00;;;;;;;19.51;62.50;98942.16;4165927;28;20045;-71
2022/09/04 09:32:02;;;;;;;9.57;4.47;;;;;;;19.53;63.11;98942.53;4236680;27;20051;-71
2022/09/04 09:34:22;;;;;;;11.77;6.03;;;;;;;19.63;62.62;98944.41;4235908;27;20062;-71
2022/09/04 09:36:58;;;;;;;10.55;4.82;;;;;;;19.77;61.54;98951.75;4237816;27;20457;-71
2022/09/04 09:39:17;;;;;;;10.68;4.82;;;;;;;19.82;60.96;98936.44;4209175;27;20039;-71
2022/09/04 09:41:36;;;;;;;7.97;4.88;;;;;;;19.91;60.93;98933.84;4236901;27;20070;-71
2022/09/04 09:43:51;;;;;;;9.32;4.60;;;;;;;19.93;60.43;98937.81;4235125;27;20079;-71
2022/09/04 09:46:07;;;;;;;6.25;4.82;;;;;;;19.99;60.79;98932.50;4236438;27;20049;-71
2022/09/04 09:48:40;;;;;;;4.88;4.18;;;;;;;20.10;59.74;98933.06;4236239;27;20789;-71
2022/09/04 09:50:49;;;;;;;7.18;4.18;;;;;;;20.17;59.68;98927.31;4235590;27;20539;-71
2022/09/04 09:53:12;;;;;;;5.32;4.18;;;;;;;20.30;59.59;98923.88;4235311;27;20077;-71
2022/09/04 09:55:30;;;;;;;10.48;4.22;;;;;;;20.35;58.97;98924.16;4235796;27;20051;-71
2022/09/04 09:58:12;;;;;;;4.72;4.13;;;;;;;20.39;58.07;98932.50;4235846;27;20043;-71
2022/09/04 10:00:16;;;;;;;6.50;4.20;;;;;;;20.49;57.99;98928.72;4233948;28;20180;-71
2022/09/04 10:02:28;;;;;;;4.82;3.35;;;;;;;20.58;57.48;98928.91;4235851;27;20031;-71
2022/09/04 10:04:47;;;;;;;7.32;4.05;;;;;;;20.69;57.55;98931.50;4235839;28;20142;-71
2022/09/04 10:07:01;;;;;;;5.15;3.30;;;;;;;20.71;56.98;98926.25;4235143;28;20042;-71
2022/09/04 10:09:29;;;;;;;4.97;3.25;;;;;;;20.79;57.20;98926.88;4234530;28;20099;-71
2022/09/04 10:11:51;;;;;;;4.45;2.90;;;;;;;20.91;57.21;98929.78;4236083;28;20220;-71
2022/09/04 10:14:00;;;;;;;4.37;3.20;;;;;;;20.99;56.54;98931.19;4235829;28;20608;-71
2022/09/04 10:16:12;;;;;;;3.60;3.15;;;;;;;21.03;56.64;98933.94;4235686;28;20075;-71
2022/09/04 10:19:07;;;;;;;4.25;3.38;;;;;;;21.09;55.43;98929.34;4234992;28;20681;-71
2022/09/04 10:21:55;;;;;;;4.97;3.15;;;;;;;21.09;56.19;98929.34;4166239;28;20052;-71
2022/09/04 10:24:09;;;;;;;5.93;2.72;;;;;;;21.16;56.47;98926.38;4235777;28;20158;-71
2022/09/04 10:26:38;;;;;;;7.32;3.10;;;;;;;21.23;55.59;98926.22;4235171;28;20058;-71
2022/09/04 10:28:41;;;;;;;3.22;2.92;;;;;;;21.41;53.89;98922.19;4235226;28;20733;-71
2022/09/04 10:30:53;;;;;;;2.85;2.50;;;;;;;21.41;53.43;98925.78;4236369;28;20035;-71
2022/09/04 10:33:08;;;;;;;3.85;2.72;;;;;;;21.38;53.98;98920.28;4235908;28;20096;-71
2022/09/04 10:35:20;;;;;;;2.85;2.50;;;;;;;21.48;53.96;98908.72;4235656;28;20104;-71
2022/09/04 10:37:42;;;;;;;5.15;2.78;;;;;;;21.45;54.36;98918.06;4234628;27;20043;-71
2022/09/04 10:40:36;;;;;;;5.63;2.95;;;;;;;21.40;54.06;98906.53;4235479;28;20552;-71
2022/09/04 10:43:16;;;;;;;3.40;2.50;;;;;;;21.47;53.98;98904.34;4235665;28;20043;-71
2022/09/04 10:45:37;;;;;;;5.07;3.00;;;;;;;21.56;54.07;98895.25;4234862;28;20668;-71
2022/09/04 10:48:08;;;;;;;3.47;2.60;;;;;;;21.66;53.70;98897.00;4236000;28;20053;-71
2022/09/04 10:50:30;;;;;;;3.28;2.58;;;;;;;21.68;54.48;98903.00;4234627;28;20051;-71
2022/09/04 10:52:33;;;;;;;3.13;2.83;;;;;;;21.68;53.69;98905.81;4234900;28;20047;-71
2022/09/04 10:54:43;;;;;;;3.95;2.80;;;;;;;21.74;53.73;98906.84;4235519;28;20738;-71
2022/09/04 10:56:53;;;;;;;4.55;2.88;;;;;;;21.79;53.09;98902.72;4236208;28;20047;-71
2022/09/04 10:59:19;;;;;;;2.53;2.30;;;;;;;21.91;53.15;98895.53;4234547;28;20049;-71